sensor_id;sensor_type;location;lat;lon;timestamp;temperature;humidity
22544;DHT22;11438;52.044;8.716;2023-04-02T00:00:17;10.40;98.20
22544;DHT22;11438;52.044;8.716;2023-04-02T00:05:46;10.30;97.80
22544;DHT22;11438;52.044;8.716;2023-04-02T00:08:26;10.20;97.70
22544;DHT22;11438;52.044;8.716;2023-04-02T00:10:57;10.20;97.70
22544;DHT22;11438;52.044;8.716;2023-04-02T00:13:24;10.10;97.70
22544;DHT22;11438;52.044;8.716;2023-04-02T00:15:55;10.10;97.80
22544;DHT22;11438;52.044;8.716;2023-04-02T00:18:22;10.10;97.80
22544;DHT22;11438;52.044;8.716;2023-04-02T00:21:11;10.00;97.80
22544;DHT22;11438;52.044;8.716;2023-04-02T00:23:40;10.00;97.80
22544;DHT22;11438;52.044;8.716;2023-04-02T00:28:46;9.90;97.70
22544;DHT22;11438;52.044;8.716;2023-04-02T00:31:11;9.90;97.70
22544;DHT22;11438;52.044;8.716;2023-04-02T00:33:37;9.90;97.70
22544;DHT22;11438;52.044;8.716;2023-04-02T00:36:05;9.90;98.10
22544;DHT22;11438;52.044;8.716;2023-04-02T00:38:33;9.80;97.70
22544;DHT22;11438;52.044;8.716;2023-04-02T00:41:02;9.80;97.70
22544;DHT22;11438;52.044;8.716;2023-04-02T00:43:30;9.80;97.70
22544;DHT22;11438;52.044;8.716;2023-04-02T00:46:00;9.80;97.80
22544;DHT22;11438;52.044;8.716;2023-04-02T00:48:35;9.70;97.80
22544;DHT22;11438;52.044;8.716;2023-04-02T00:51:25;9.80;97.70
22544;DHT22;11438;52.044;8.716;2023-04-02T00:53:54;9.70;97.70
22544;DHT22;11438;52.044;8.716;2023-04-02T00:56:26;9.70;97.80
22544;DHT22;11438;52.044;8.716;2023-04-02T00:58:55;9.70;97.80
22544;DHT22;11438;52.044;8.716;2023-04-02T01:01:34;9.70;97.70
22544;DHT22;11438;52.044;8.716;2023-04-02T01:04:03;9.70;97.60
22544;DHT22;11438;52.044;8.716;2023-04-02T01:06:32;9.60;97.60
22544;DHT22;11438;52.044;8.716;2023-04-02T01:16:51;9.50;97.50
22544;DHT22;11438;52.044;8.716;2023-04-02T01:19:43;9.40;97.50
22544;DHT22;11438;52.044;8.716;2023-04-02T01:22:36;9.30;97.50
22544;DHT22;11438;52.044;8.716;2023-04-02T01:25:04;9.30;97.60
22544;DHT22;11438;52.044;8.716;2023-04-02T01:27:44;9.30;97.50
22544;DHT22;11438;52.044;8.716;2023-04-02T01:30:13;9.20;97.40
22544;DHT22;11438;52.044;8.716;2023-04-02T01:32:41;9.20;97.50
22544;DHT22;11438;52.044;8.716;2023-04-02T01:35:08;9.20;97.50
22544;DHT22;11438;52.044;8.716;2023-04-02T01:37:49;9.10;97.60
22544;DHT22;11438;52.044;8.716;2023-04-02T01:46:29;9.10;97.60
22544;DHT22;11438;52.044;8.716;2023-04-02T01:48:56;9.00;97.60
22544;DHT22;11438;52.044;8.716;2023-04-02T01:51:27;9.00;97.60
22544;DHT22;11438;52.044;8.716;2023-04-02T01:53:54;9.10;97.60
22544;DHT22;11438;52.044;8.716;2023-04-02T01:56:20;9.00;97.60
22544;DHT22;11438;52.044;8.716;2023-04-02T01:58:47;9.00;97.70
22544;DHT22;11438;52.044;8.716;2023-04-02T02:01:16;9.00;97.70
22544;DHT22;11438;52.044;8.716;2023-04-02T02:03:43;9.00;97.70
22544;DHT22;11438;52.044;8.716;2023-04-02T02:06:14;9.00;97.80
22544;DHT22;11438;52.044;8.716;2023-04-02T02:11:14;8.90;97.70
22544;DHT22;11438;52.044;8.716;2023-04-02T02:13:50;8.90;97.80
22544;DHT22;11438;52.044;8.716;2023-04-02T02:16:18;8.90;97.90
22544;DHT22;11438;52.044;8.716;2023-04-02T02:18:47;8.90;97.80
22544;DHT22;11438;52.044;8.716;2023-04-02T02:21:23;8.90;97.80
22544;DHT22;11438;52.044;8.716;2023-04-02T02:23:50;8.90;97.70
22544;DHT22;11438;52.044;8.716;2023-04-02T02:26:16;8.90;97.70
22544;DHT22;11438;52.044;8.716;2023-04-02T02:28:43;8.80;97.70
22544;DHT22;11438;52.044;8.716;2023-04-02T02:31:17;8.90;97.70
22544;DHT22;11438;52.044;8.716;2023-04-02T02:33:51;8.80;97.60
22544;DHT22;11438;52.044;8.716;2023-04-02T02:37:01;8.80;97.60
22544;DHT22;11438;52.044;8.716;2023-04-02T02:39:33;8.80;97.50
22544;DHT22;11438;52.044;8.716;2023-04-02T02:42:15;8.80;97.40
22544;DHT22;11438;52.044;8.716;2023-04-02T02:44:45;8.70;97.40
22544;DHT22;11438;52.044;8.716;2023-04-02T02:47:18;8.70;97.30
22544;DHT22;11438;52.044;8.716;2023-04-02T02:49:49;8.70;97.30
22544;DHT22;11438;52.044;8.716;2023-04-02T02:52:19;8.60;97.40
22544;DHT22;11438;52.044;8.716;2023-04-02T02:54:54;8.60;97.40
22544;DHT22;11438;52.044;8.716;2023-04-02T02:57:24;8.60;97.50
22544;DHT22;11438;52.044;8.716;2023-04-02T02:59:54;8.50;97.50
22544;DHT22;11438;52.044;8.716;2023-04-02T03:02:23;8.50;97.50
22544;DHT22;11438;52.044;8.716;2023-04-02T03:04:50;8.50;97.60
22544;DHT22;11438;52.044;8.716;2023-04-02T03:07:19;8.50;97.60
22544;DHT22;11438;52.044;8.716;2023-04-02T03:12:43;8.40;97.40
22544;DHT22;11438;52.044;8.716;2023-04-02T03:15:16;8.50;97.40
22544;DHT22;11438;52.044;8.716;2023-04-02T03:20:47;8.40;97.10
22544;DHT22;11438;52.044;8.716;2023-04-02T03:23:27;8.30;97.10
22544;DHT22;11438;52.044;8.716;2023-04-02T03:26:21;8.30;97.00
22544;DHT22;11438;52.044;8.716;2023-04-02T03:29:33;8.30;97.40
22544;DHT22;11438;52.044;8.716;2023-04-02T03:31:49;8.30;97.00
22544;DHT22;11438;52.044;8.716;2023-04-02T03:34:23;8.30;96.90
22544;DHT22;11438;52.044;8.716;2023-04-02T03:39:35;8.20;96.90
22544;DHT22;11438;52.044;8.716;2023-04-02T03:42:06;8.10;96.90
22544;DHT22;11438;52.044;8.716;2023-04-02T03:44:44;8.10;96.90
22544;DHT22;11438;52.044;8.716;2023-04-02T03:47:18;8.10;96.90
22544;DHT22;11438;52.044;8.716;2023-04-02T03:52:28;8.10;96.80
22544;DHT22;11438;52.044;8.716;2023-04-02T03:54:56;8.00;96.90
22544;DHT22;11438;52.044;8.716;2023-04-02T03:57:39;8.00;96.90
22544;DHT22;11438;52.044;8.716;2023-04-02T04:00:23;8.00;96.90
22544;DHT22;11438;52.044;8.716;2023-04-02T04:02:59;8.00;96.90
22544;DHT22;11438;52.044;8.716;2023-04-02T04:05:30;8.00;96.90
22544;DHT22;11438;52.044;8.716;2023-04-02T04:08:01;8.00;96.80
22544;DHT22;11438;52.044;8.716;2023-04-02T04:10:28;8.00;96.60
22544;DHT22;11438;52.044;8.716;2023-04-02T04:13:00;8.00;96.70
22544;DHT22;11438;52.044;8.716;2023-04-02T04:15:42;8.00;96.60
22544;DHT22;11438;52.044;8.716;2023-04-02T04:18:46;7.90;96.40
22544;DHT22;11438;52.044;8.716;2023-04-02T04:21:23;7.90;96.40
22544;DHT22;11438;52.044;8.716;2023-04-02T04:23:59;7.90;96.40
22544;DHT22;11438;52.044;8.716;2023-04-02T04:26:39;7.80;96.50
22544;DHT22;11438;52.044;8.716;2023-04-02T04:32:36;7.70;96.60
22544;DHT22;11438;52.044;8.716;2023-04-02T04:35:26;7.70;96.70
22544;DHT22;11438;52.044;8.716;2023-04-02T04:37:59;7.70;96.70
22544;DHT22;11438;52.044;8.716;2023-04-02T04:40:30;7.70;96.70
22544;DHT22;11438;52.044;8.716;2023-04-02T04:43:05;7.70;96.80
22544;DHT22;11438;52.044;8.716;2023-04-02T04:45:44;7.70;96.90
22544;DHT22;11438;52.044;8.716;2023-04-02T04:48:22;7.60;96.80
22544;DHT22;11438;52.044;8.716;2023-04-02T04:50:58;7.60;96.80
22544;DHT22;11438;52.044;8.716;2023-04-02T04:53:27;7.60;96.70
22544;DHT22;11438;52.044;8.716;2023-04-02T04:55:54;7.60;96.70
22544;DHT22;11438;52.044;8.716;2023-04-02T04:58:41;7.60;96.70
22544;DHT22;11438;52.044;8.716;2023-04-02T05:01:32;7.60;96.70
22544;DHT22;11438;52.044;8.716;2023-04-02T05:04:19;7.60;96.80
22544;DHT22;11438;52.044;8.716;2023-04-02T05:09:57;7.60;96.80
22544;DHT22;11438;52.044;8.716;2023-04-02T05:12:49;7.60;96.80
22544;DHT22;11438;52.044;8.716;2023-04-02T05:15:31;7.50;96.90
22544;DHT22;11438;52.044;8.716;2023-04-02T05:18:27;7.60;96.80
22544;DHT22;11438;52.044;8.716;2023-04-02T05:23:47;7.60;96.80
22544;DHT22;11438;52.044;8.716;2023-04-02T05:26:24;7.60;96.70
22544;DHT22;11438;52.044;8.716;2023-04-02T05:29:08;7.60;96.70
22544;DHT22;11438;52.044;8.716;2023-04-02T05:34:09;7.60;96.60
22544;DHT22;11438;52.044;8.716;2023-04-02T05:36:36;7.60;96.70
22544;DHT22;11438;52.044;8.716;2023-04-02T05:39:01;7.60;96.60
22544;DHT22;11438;52.044;8.716;2023-04-02T05:41:42;7.60;96.60
22544;DHT22;11438;52.044;8.716;2023-04-02T05:47:03;7.60;96.40
22544;DHT22;11438;52.044;8.716;2023-04-02T05:49:32;7.60;96.30
22544;DHT22;11438;52.044;8.716;2023-04-02T05:52:02;7.60;96.20
22544;DHT22;11438;52.044;8.716;2023-04-02T05:57:48;7.60;96.00
22544;DHT22;11438;52.044;8.716;2023-04-02T06:03:39;7.60;96.20
22544;DHT22;11438;52.044;8.716;2023-04-02T06:06:39;7.60;96.10
22544;DHT22;11438;52.044;8.716;2023-04-02T06:09:12;7.60;96.00
22544;DHT22;11438;52.044;8.716;2023-04-02T06:11:43;7.60;95.90
22544;DHT22;11438;52.044;8.716;2023-04-02T06:14:15;7.60;95.70
22544;DHT22;11438;52.044;8.716;2023-04-02T06:16:43;7.60;96.10
22544;DHT22;11438;52.044;8.716;2023-04-02T06:19:22;7.60;95.70
22544;DHT22;11438;52.044;8.716;2023-04-02T06:21:51;7.50;95.60
22544;DHT22;11438;52.044;8.716;2023-04-02T06:24:24;7.50;95.70
22544;DHT22;11438;52.044;8.716;2023-04-02T06:27:01;7.60;95.60
22544;DHT22;11438;52.044;8.716;2023-04-02T06:29:33;7.50;95.50
22544;DHT22;11438;52.044;8.716;2023-04-02T06:32:05;7.50;95.60
22544;DHT22;11438;52.044;8.716;2023-04-02T06:34:31;7.60;95.70
22544;DHT22;11438;52.044;8.716;2023-04-02T06:37:00;7.50;95.60
22544;DHT22;11438;52.044;8.716;2023-04-02T06:39:28;7.50;95.40
22544;DHT22;11438;52.044;8.716;2023-04-02T06:44:33;7.50;95.30
22544;DHT22;11438;52.044;8.716;2023-04-02T06:47:38;7.50;95.50
22544;DHT22;11438;52.044;8.716;2023-04-02T06:50:22;7.50;95.50
22544;DHT22;11438;52.044;8.716;2023-04-02T06:53:01;7.60;95.50
22544;DHT22;11438;52.044;8.716;2023-04-02T06:58:18;7.60;95.50
22544;DHT22;11438;52.044;8.716;2023-04-02T07:00:46;7.60;95.40
22544;DHT22;11438;52.044;8.716;2023-04-02T07:03:24;7.60;95.20
22544;DHT22;11438;52.044;8.716;2023-04-02T07:05:50;7.60;95.30
22544;DHT22;11438;52.044;8.716;2023-04-02T07:08:16;7.60;95.20
22544;DHT22;11438;52.044;8.716;2023-04-02T07:10:42;7.60;95.30
22544;DHT22;11438;52.044;8.716;2023-04-02T07:13:21;7.60;95.10
22544;DHT22;11438;52.044;8.716;2023-04-02T07:15:51;7.70;95.10
22544;DHT22;11438;52.044;8.716;2023-04-02T07:18:43;7.70;95.10
22544;DHT22;11438;52.044;8.716;2023-04-02T07:21:09;7.70;95.20
22544;DHT22;11438;52.044;8.716;2023-04-02T07:23:35;7.70;95.30
22544;DHT22;11438;52.044;8.716;2023-04-02T07:26:01;7.70;95.10
22544;DHT22;11438;52.044;8.716;2023-04-02T07:28:28;7.80;95.00
22544;DHT22;11438;52.044;8.716;2023-04-02T07:30:54;7.70;94.90
22544;DHT22;11438;52.044;8.716;2023-04-02T07:33:25;7.80;94.60
22544;DHT22;11438;52.044;8.716;2023-04-02T07:35:53;7.80;94.50
22544;DHT22;11438;52.044;8.716;2023-04-02T07:38:19;7.80;94.30
22544;DHT22;11438;52.044;8.716;2023-04-02T07:40:44;7.80;94.30
22544;DHT22;11438;52.044;8.716;2023-04-02T07:43:10;7.80;94.40
22544;DHT22;11438;52.044;8.716;2023-04-02T07:45:35;7.80;94.60
22544;DHT22;11438;52.044;8.716;2023-04-02T07:48:05;7.80;94.50
22544;DHT22;11438;52.044;8.716;2023-04-02T07:50:31;7.80;94.30
22544;DHT22;11438;52.044;8.716;2023-04-02T07:52:57;7.80;94.40
22544;DHT22;11438;52.044;8.716;2023-04-02T07:55:22;7.80;94.30
22544;DHT22;11438;52.044;8.716;2023-04-02T07:57:56;7.80;94.30
22544;DHT22;11438;52.044;8.716;2023-04-02T08:00:23;7.90;94.30
22544;DHT22;11438;52.044;8.716;2023-04-02T08:02:50;7.90;94.00
22544;DHT22;11438;52.044;8.716;2023-04-02T08:05:16;7.90;94.20
22544;DHT22;11438;52.044;8.716;2023-04-02T08:07:42;7.90;94.30
22544;DHT22;11438;52.044;8.716;2023-04-02T08:10:10;7.90;94.10
22544;DHT22;11438;52.044;8.716;2023-04-02T08:12:35;7.90;94.10
22544;DHT22;11438;52.044;8.716;2023-04-02T08:15:02;7.90;94.20
22544;DHT22;11438;52.044;8.716;2023-04-02T08:17:30;8.00;94.20
22544;DHT22;11438;52.044;8.716;2023-04-02T08:19:59;8.00;94.20
22544;DHT22;11438;52.044;8.716;2023-04-02T08:22:29;8.00;93.70
22544;DHT22;11438;52.044;8.716;2023-04-02T08:24:54;8.10;93.70
22544;DHT22;11438;52.044;8.716;2023-04-02T08:27:21;8.00;93.60
22544;DHT22;11438;52.044;8.716;2023-04-02T08:29:47;8.10;93.70
22544;DHT22;11438;52.044;8.716;2023-04-02T08:32:13;8.10;93.90
22544;DHT22;11438;52.044;8.716;2023-04-02T08:34:41;8.10;93.90
22544;DHT22;11438;52.044;8.716;2023-04-02T08:37:08;8.10;93.90
22544;DHT22;11438;52.044;8.716;2023-04-02T08:39:35;8.10;94.00
22544;DHT22;11438;52.044;8.716;2023-04-02T08:42:28;8.20;94.00
22544;DHT22;11438;52.044;8.716;2023-04-02T08:47:35;8.30;93.80
22544;DHT22;11438;52.044;8.716;2023-04-02T08:50:05;8.30;93.70
22544;DHT22;11438;52.044;8.716;2023-04-02T08:52:37;8.30;93.50
22544;DHT22;11438;52.044;8.716;2023-04-02T08:55:08;8.30;93.60
22544;DHT22;11438;52.044;8.716;2023-04-02T08:57:50;8.30;93.60
22544;DHT22;11438;52.044;8.716;2023-04-02T09:00:35;8.40;93.80
22544;DHT22;11438;52.044;8.716;2023-04-02T09:03:11;8.40;93.60
22544;DHT22;11438;52.044;8.716;2023-04-02T09:05:41;8.50;93.30
22544;DHT22;11438;52.044;8.716;2023-04-02T09:08:19;8.60;93.00
22544;DHT22;11438;52.044;8.716;2023-04-02T09:13:28;8.60;93.00
22544;DHT22;11438;52.044;8.716;2023-04-02T09:16:14;8.70;93.10
22544;DHT22;11438;52.044;8.716;2023-04-02T09:18:43;8.70;92.90
22544;DHT22;11438;52.044;8.716;2023-04-02T09:23:47;8.80;93.30
22544;DHT22;11438;52.044;8.716;2023-04-02T09:26:24;8.90;93.20
22544;DHT22;11438;52.044;8.716;2023-04-02T09:31:42;9.00;92.70
22544;DHT22;11438;52.044;8.716;2023-04-02T09:34:29;9.00;92.70
22544;DHT22;11438;52.044;8.716;2023-04-02T09:36:55;9.10;92.20
22544;DHT22;11438;52.044;8.716;2023-04-02T09:39:23;9.10;92.40
22544;DHT22;11438;52.044;8.716;2023-04-02T09:41:50;9.20;92.40
22544;DHT22;11438;52.044;8.716;2023-04-02T09:44:27;9.20;92.50
22544;DHT22;11438;52.044;8.716;2023-04-02T09:47:03;9.20;92.40
22544;DHT22;11438;52.044;8.716;2023-04-02T09:49:37;9.30;92.50
22544;DHT22;11438;52.044;8.716;2023-04-02T09:54:43;9.40;92.40
22544;DHT22;11438;52.044;8.716;2023-04-02T09:57:21;9.40;92.30
22544;DHT22;11438;52.044;8.716;2023-04-02T10:00:17;9.50;92.60
22544;DHT22;11438;52.044;8.716;2023-04-02T10:03:05;9.60;92.40
22544;DHT22;11438;52.044;8.716;2023-04-02T10:05:32;9.70;92.10
22544;DHT22;11438;52.044;8.716;2023-04-02T10:08:17;9.70;92.00
22544;DHT22;11438;52.044;8.716;2023-04-02T10:10:46;9.80;92.30
22544;DHT22;11438;52.044;8.716;2023-04-02T10:13:33;9.80;92.30
22544;DHT22;11438;52.044;8.716;2023-04-02T10:16:13;9.90;92.30
22544;DHT22;11438;52.044;8.716;2023-04-02T10:18:48;9.90;92.20
22544;DHT22;11438;52.044;8.716;2023-04-02T10:21:18;10.00;91.90
22544;DHT22;11438;52.044;8.716;2023-04-02T10:23:46;10.10;91.90
22544;DHT22;11438;52.044;8.716;2023-04-02T10:29:07;10.20;91.80
22544;DHT22;11438;52.044;8.716;2023-04-02T10:31:50;10.20;91.30
22544;DHT22;11438;52.044;8.716;2023-04-02T10:34:38;10.30;91.40
22544;DHT22;11438;52.044;8.716;2023-04-02T10:39:57;10.40;91.00
22544;DHT22;11438;52.044;8.716;2023-04-02T10:42:30;10.40;90.80
22544;DHT22;11438;52.044;8.716;2023-04-02T10:45:00;10.40;90.80
22544;DHT22;11438;52.044;8.716;2023-04-02T10:47:41;10.40;90.50
22544;DHT22;11438;52.044;8.716;2023-04-02T10:53:10;10.50;90.90
22544;DHT22;11438;52.044;8.716;2023-04-02T10:55:43;10.40;90.80
22544;DHT22;11438;52.044;8.716;2023-04-02T10:58:23;10.50;90.80
22544;DHT22;11438;52.044;8.716;2023-04-02T11:00:55;10.50;90.70
22544;DHT22;11438;52.044;8.716;2023-04-02T11:03:35;10.50;90.60
22544;DHT22;11438;52.044;8.716;2023-04-02T11:06:16;10.50;90.50
22544;DHT22;11438;52.044;8.716;2023-04-02T11:08:46;10.60;90.50
22544;DHT22;11438;52.044;8.716;2023-04-02T11:11:29;10.60;90.80
22544;DHT22;11438;52.044;8.716;2023-04-02T11:13:56;10.60;90.70
22544;DHT22;11438;52.044;8.716;2023-04-02T11:16:23;10.70;90.90
22544;DHT22;11438;52.044;8.716;2023-04-02T11:21:52;10.70;90.30
22544;DHT22;11438;52.044;8.716;2023-04-02T11:29:51;10.80;90.50
22544;DHT22;11438;52.044;8.716;2023-04-02T11:32:24;10.90;90.50
22544;DHT22;11438;52.044;8.716;2023-04-02T11:42:39;11.10;90.00
22544;DHT22;11438;52.044;8.716;2023-04-02T11:50:40;11.20;89.90
22544;DHT22;11438;52.044;8.716;2023-04-02T11:55:39;11.20;87.80
22544;DHT22;11438;52.044;8.716;2023-04-02T12:01:02;11.30;89.00
22544;DHT22;11438;52.044;8.716;2023-04-02T12:04:05;11.30;89.90
22544;DHT22;11438;52.044;8.716;2023-04-02T12:09:48;11.40;89.00
22544;DHT22;11438;52.044;8.716;2023-04-02T12:12:26;11.50;89.70
22544;DHT22;11438;52.044;8.716;2023-04-02T12:14:56;11.60;89.90
22544;DHT22;11438;52.044;8.716;2023-04-02T12:17:24;11.70;89.00
22544;DHT22;11438;52.044;8.716;2023-04-02T12:19:54;11.80;88.60
22544;DHT22;11438;52.044;8.716;2023-04-02T12:22:30;11.80;88.90
22544;DHT22;11438;52.044;8.716;2023-04-02T12:25:20;11.90;88.70
22544;DHT22;11438;52.044;8.716;2023-04-02T12:27:47;12.00;88.70
22544;DHT22;11438;52.044;8.716;2023-04-02T12:30:22;12.10;88.00
22544;DHT22;11438;52.044;8.716;2023-04-02T12:32:48;12.20;85.70
22544;DHT22;11438;52.044;8.716;2023-04-02T12:35:30;12.20;85.00
22544;DHT22;11438;52.044;8.716;2023-04-02T12:37:56;12.20;84.80
22544;DHT22;11438;52.044;8.716;2023-04-02T12:40:23;12.20;84.00
22544;DHT22;11438;52.044;8.716;2023-04-02T12:42:49;12.10;82.70
22544;DHT22;11438;52.044;8.716;2023-04-02T12:45:31;12.00;82.70
22544;DHT22;11438;52.044;8.716;2023-04-02T12:47:59;12.00;83.80
22544;DHT22;11438;52.044;8.716;2023-04-02T12:50:27;11.90;83.00
22544;DHT22;11438;52.044;8.716;2023-04-02T12:52:53;11.90;84.20
22544;DHT22;11438;52.044;8.716;2023-04-02T12:55:22;11.80;83.50
22544;DHT22;11438;52.044;8.716;2023-04-02T12:57:48;11.80;84.60
22544;DHT22;11438;52.044;8.716;2023-04-02T13:05:52;11.90;86.00
22544;DHT22;11438;52.044;8.716;2023-04-02T13:08:27;11.90;85.40
22544;DHT22;11438;52.044;8.716;2023-04-02T13:11:00;11.90;84.20
22544;DHT22;11438;52.044;8.716;2023-04-02T13:13:31;11.90;82.70
22544;DHT22;11438;52.044;8.716;2023-04-02T13:16:03;11.90;83.40
22544;DHT22;11438;52.044;8.716;2023-04-02T13:18:29;11.90;84.10
22544;DHT22;11438;52.044;8.716;2023-04-02T13:20:58;11.90;84.60
22544;DHT22;11438;52.044;8.716;2023-04-02T13:25:57;11.90;85.40
22544;DHT22;11438;52.044;8.716;2023-04-02T13:28:24;12.00;85.80
22544;DHT22;11438;52.044;8.716;2023-04-02T13:30:49;12.00;85.10
22544;DHT22;11438;52.044;8.716;2023-04-02T13:33:15;12.10;84.00
22544;DHT22;11438;52.044;8.716;2023-04-02T13:35:41;12.10;83.10
22544;DHT22;11438;52.044;8.716;2023-04-02T13:38:07;12.10;83.30
22544;DHT22;11438;52.044;8.716;2023-04-02T13:40:33;12.00;81.90
22544;DHT22;11438;52.044;8.716;2023-04-02T13:42:59;12.00;81.80
22544;DHT22;11438;52.044;8.716;2023-04-02T13:45:38;12.00;81.50
22544;DHT22;11438;52.044;8.716;2023-04-02T13:48:05;11.90;81.80
22544;DHT22;11438;52.044;8.716;2023-04-02T13:50:33;11.90;82.50
22544;DHT22;11438;52.044;8.716;2023-04-02T13:53:04;11.80;83.10
22544;DHT22;11438;52.044;8.716;2023-04-02T13:55:35;11.80;82.90
22544;DHT22;11438;52.044;8.716;2023-04-02T13:58:02;11.70;82.60
22544;DHT22;11438;52.044;8.716;2023-04-02T14:00:27;11.80;82.80
22544;DHT22;11438;52.044;8.716;2023-04-02T14:02:59;11.70;82.80
22544;DHT22;11438;52.044;8.716;2023-04-02T14:05:43;11.80;82.20
22544;DHT22;11438;52.044;8.716;2023-04-02T14:25:07;12.10;83.40
22544;DHT22;11438;52.044;8.716;2023-04-02T14:28:09;12.20;84.30
22544;DHT22;11438;52.044;8.716;2023-04-02T14:31:07;12.20;84.40
22544;DHT22;11438;52.044;8.716;2023-04-02T14:39:16;12.40;82.10
22544;DHT22;11438;52.044;8.716;2023-04-02T14:44:22;12.50;82.30
22544;DHT22;11438;52.044;8.716;2023-04-02T14:46:55;12.50;81.70
22544;DHT22;11438;52.044;8.716;2023-04-02T14:49:29;12.60;80.90
22544;DHT22;11438;52.044;8.716;2023-04-02T14:52:01;12.60;80.70
22544;DHT22;11438;52.044;8.716;2023-04-02T14:54:49;12.60;81.30
22544;DHT22;11438;52.044;8.716;2023-04-02T14:57:28;12.60;80.80
22544;DHT22;11438;52.044;8.716;2023-04-02T15:02:48;12.60;81.00
22544;DHT22;11438;52.044;8.716;2023-04-02T15:05:41;12.70;81.50
22544;DHT22;11438;52.044;8.716;2023-04-02T15:08:36;12.70;80.60
22544;DHT22;11438;52.044;8.716;2023-04-02T15:11:23;12.70;80.60
22544;DHT22;11438;52.044;8.716;2023-04-02T15:14:06;12.70;79.20
22544;DHT22;11438;52.044;8.716;2023-04-02T15:16:35;12.70;79.90
22544;DHT22;11438;52.044;8.716;2023-04-02T15:19:02;12.70;79.60
22544;DHT22;11438;52.044;8.716;2023-04-02T15:24:16;12.70;80.50
22544;DHT22;11438;52.044;8.716;2023-04-02T15:29:41;12.70;79.50
22544;DHT22;11438;52.044;8.716;2023-04-02T15:37:40;12.80;80.70
22544;DHT22;11438;52.044;8.716;2023-04-02T15:54:18;14.00;78.90
22544;DHT22;11438;52.044;8.716;2023-04-02T15:57:36;14.20;79.70
22544;DHT22;11438;52.044;8.716;2023-04-02T16:05:47;14.70;79.10
22544;DHT22;11438;52.044;8.716;2023-04-02T16:10:56;15.00;77.10
22544;DHT22;11438;52.044;8.716;2023-04-02T16:13:35;15.00;75.90
22544;DHT22;11438;52.044;8.716;2023-04-02T16:16:08;14.90;75.00
22544;DHT22;11438;52.044;8.716;2023-04-02T16:21:10;14.80;74.30
22544;DHT22;11438;52.044;8.716;2023-04-02T16:23:38;14.60;73.60
22544;DHT22;11438;52.044;8.716;2023-04-02T16:26:20;14.50;74.00
22544;DHT22;11438;52.044;8.716;2023-04-02T16:31:49;14.20;74.70
22544;DHT22;11438;52.044;8.716;2023-04-02T16:34:38;14.10;74.90
22544;DHT22;11438;52.044;8.716;2023-04-02T16:37:32;14.00;75.20
22544;DHT22;11438;52.044;8.716;2023-04-02T16:42:59;13.70;74.00
22544;DHT22;11438;52.044;8.716;2023-04-02T16:51:30;13.50;74.30
22544;DHT22;11438;52.044;8.716;2023-04-02T16:54:07;13.40;75.20
22544;DHT22;11438;52.044;8.716;2023-04-02T16:59:34;13.20;75.00
22544;DHT22;11438;52.044;8.716;2023-04-02T17:05:14;13.10;75.90
22544;DHT22;11438;52.044;8.716;2023-04-02T17:11:01;13.00;75.80
22544;DHT22;11438;52.044;8.716;2023-04-02T17:13:46;13.00;76.40
22544;DHT22;11438;52.044;8.716;2023-04-02T17:16:18;12.90;76.20
22544;DHT22;11438;52.044;8.716;2023-04-02T17:18:47;12.90;76.10
22544;DHT22;11438;52.044;8.716;2023-04-02T17:21:18;12.80;75.70
22544;DHT22;11438;52.044;8.716;2023-04-02T17:24:13;12.70;75.00
22544;DHT22;11438;52.044;8.716;2023-04-02T17:26:36;12.60;74.30
22544;DHT22;11438;52.044;8.716;2023-04-02T17:29:06;12.50;74.60
22544;DHT22;11438;52.044;8.716;2023-04-02T17:31:33;12.50;75.30
22544;DHT22;11438;52.044;8.716;2023-04-02T17:34:12;12.40;75.70
22544;DHT22;11438;52.044;8.716;2023-04-02T17:36:49;12.30;75.00
22544;DHT22;11438;52.044;8.716;2023-04-02T17:41:55;12.20;75.90
22544;DHT22;11438;52.044;8.716;2023-04-02T17:44:51;12.10;77.10
22544;DHT22;11438;52.044;8.716;2023-04-02T17:47:22;12.00;76.80
22544;DHT22;11438;52.044;8.716;2023-04-02T17:52:47;11.90;77.70
22544;DHT22;11438;52.044;8.716;2023-04-02T17:55:36;11.90;78.00
22544;DHT22;11438;52.044;8.716;2023-04-02T17:58:16;11.80;78.40
22544;DHT22;11438;52.044;8.716;2023-04-02T18:01:00;11.80;79.30
22544;DHT22;11438;52.044;8.716;2023-04-02T18:03:51;11.70;79.30
22544;DHT22;11438;52.044;8.716;2023-04-02T18:06:20;11.70;80.40
22544;DHT22;11438;52.044;8.716;2023-04-02T18:09:13;11.60;80.60
22544;DHT22;11438;52.044;8.716;2023-04-02T18:14:33;11.60;81.50
22544;DHT22;11438;52.044;8.716;2023-04-02T18:20:33;11.50;81.80
22544;DHT22;11438;52.044;8.716;2023-04-02T18:23:06;11.50;82.10
22544;DHT22;11438;52.044;8.716;2023-04-02T18:28:52;11.50;82.10
22544;DHT22;11438;52.044;8.716;2023-04-02T18:34:01;11.40;82.10
22544;DHT22;11438;52.044;8.716;2023-04-02T18:36:52;11.40;82.70
22544;DHT22;11438;52.044;8.716;2023-04-02T18:42:35;11.40;82.30
22544;DHT22;11438;52.044;8.716;2023-04-02T18:50:47;11.30;83.30
22544;DHT22;11438;52.044;8.716;2023-04-02T18:53:15;11.30;83.60
22544;DHT22;11438;52.044;8.716;2023-04-02T18:55:47;11.30;84.70
22544;DHT22;11438;52.044;8.716;2023-04-02T18:58:19;11.30;84.00
22544;DHT22;11438;52.044;8.716;2023-04-02T19:00:48;11.20;84.30
22544;DHT22;11438;52.044;8.716;2023-04-02T19:06:07;11.20;84.60
22544;DHT22;11438;52.044;8.716;2023-04-02T19:08:49;11.20;85.00
22544;DHT22;11438;52.044;8.716;2023-04-02T19:11:22;11.20;85.30
22544;DHT22;11438;52.044;8.716;2023-04-02T19:13:54;11.20;85.50
22544;DHT22;11438;52.044;8.716;2023-04-02T19:19:20;11.20;85.90
22544;DHT22;11438;52.044;8.716;2023-04-02T19:24:54;11.10;85.30
22544;DHT22;11438;52.044;8.716;2023-04-02T19:39:26;11.00;83.50
22544;DHT22;11438;52.044;8.716;2023-04-02T19:42:28;11.00;82.70
22544;DHT22;11438;52.044;8.716;2023-04-02T19:44:55;11.00;82.40
22544;DHT22;11438;52.044;8.716;2023-04-02T19:47:21;11.00;81.80
22544;DHT22;11438;52.044;8.716;2023-04-02T19:49:49;11.00;81.20
22544;DHT22;11438;52.044;8.716;2023-04-02T19:52:15;10.90;81.40
22544;DHT22;11438;52.044;8.716;2023-04-02T19:54:41;10.90;81.50
22544;DHT22;11438;52.044;8.716;2023-04-02T19:57:06;10.90;81.70
22544;DHT22;11438;52.044;8.716;2023-04-02T19:59:34;10.90;81.40
22544;DHT22;11438;52.044;8.716;2023-04-02T20:02:00;10.80;81.90
22544;DHT22;11438;52.044;8.716;2023-04-02T20:04:30;10.80;82.00
22544;DHT22;11438;52.044;8.716;2023-04-02T20:06:55;10.80;82.60
22544;DHT22;11438;52.044;8.716;2023-04-02T20:09:21;10.70;82.40
22544;DHT22;11438;52.044;8.716;2023-04-02T20:11:46;10.70;82.90
22544;DHT22;11438;52.044;8.716;2023-04-02T20:14:12;10.60;82.90
22544;DHT22;11438;52.044;8.716;2023-04-02T20:16:37;10.60;82.90
22544;DHT22;11438;52.044;8.716;2023-04-02T20:19:03;10.50;82.50
22544;DHT22;11438;52.044;8.716;2023-04-02T20:21:29;10.50;82.20
22544;DHT22;11438;52.044;8.716;2023-04-02T20:23:59;10.40;82.20
22544;DHT22;11438;52.044;8.716;2023-04-02T20:26:24;10.40;82.10
22544;DHT22;11438;52.044;8.716;2023-04-02T20:28:51;10.30;83.10
22544;DHT22;11438;52.044;8.716;2023-04-02T20:31:17;10.30;82.40